Offenburg Airport EDTO

Flugplatz Daten

Name: Offenburg Airport

Ident: EDTO

Lat: 48,45000076

Long: 7,924722195

Platzhöhe: 509 ft

IataCode:

City: Offenburg

Metar

2015/09/17 19:30
YSSY 171930Z 21019KT 9000 -SHRA FEW018 SCT025 BKN050 15/12 Q1024 RMK VIS REDUCEDTO S NOSIG

Taf

Gewünschte Webcam nicht vorhanden? Dann fügen Sie eine hinzu. Sie wird dann so schnell wie möglich freigeschaltet
Url: Title: